createdAt,value
2022-12-08T00:04:18.893Z,99032.86
2022-12-08T00:09:22.212Z,99031.66
2022-12-08T00:14:28.528Z,99029.59
2022-12-08T00:19:32.311Z,99031.31
2022-12-08T00:24:39.763Z,99031.31
2022-12-08T00:29:45.798Z,99035.77
2022-12-08T00:34:49.217Z,99038.84
2022-12-08T00:39:52.225Z,99053.96
2022-12-08T00:44:55.231Z,99063.95
2022-12-08T00:49:58.233Z,99074.96
2022-12-08T00:55:01.240Z,99081.34
2022-12-08T01:00:05.270Z,99088.04
2022-12-08T01:05:08.792Z,99094.77
2022-12-08T01:10:11.696Z,99093.55
2022-12-08T01:15:14.503Z,99089.08
2022-12-08T01:20:17.605Z,99091.32
2022-12-08T01:25:20.509Z,99093.39
2022-12-08T01:30:23.630Z,99102.84
2022-12-08T01:35:26.730Z,99103.02
2022-12-08T01:40:29.731Z,99106.10
2022-12-08T01:45:33.249Z,99108.34
2022-12-08T01:50:37.566Z,99109.89
2022-12-08T01:55:55.335Z,99110.41
2022-12-08T02:00:58.489Z,99117.29
2022-12-08T02:06:03.124Z,99119.33
2022-12-08T02:11:09.638Z,99122.95
2022-12-08T02:16:38.765Z,99123.30
2022-12-08T02:21:51.945Z,99117.77
2022-12-08T02:27:13.802Z,99122.26
2022-12-08T02:32:37.075Z,99122.73
2022-12-08T02:38:02.000Z,99130.04
2022-12-08T02:43:16.779Z,99134.77
2022-12-08T02:48:19.886Z,99141.94
2022-12-08T02:53:22.902Z,99148.27
2022-12-08T02:58:50.579Z,99151.14
2022-12-08T03:04:14.781Z,99155.90
2022-12-08T03:09:24.791Z,99160.16
2022-12-08T03:14:30.015Z,99164.59
2022-12-08T03:19:38.955Z,99167.25
2022-12-08T03:24:45.444Z,99168.18
2022-12-08T03:29:51.012Z,99174.27
2022-12-08T03:34:56.065Z,99178.29
2022-12-08T03:39:58.969Z,99181.64
2022-12-08T03:45:01.976Z,99188.30
2022-12-08T03:50:06.381Z,99196.36
2022-12-08T03:55:10.241Z,99198.60
2022-12-08T04:00:16.113Z,99202.03
2022-12-08T04:05:19.020Z,99206.31
2022-12-08T04:10:22.126Z,99207.55
2022-12-08T04:15:25.134Z,99211.44
2022-12-08T04:20:28.036Z,99218.27
2022-12-08T04:25:30.941Z,99220.11
2022-12-08T04:30:34.619Z,99225.05
2022-12-08T04:35:37.567Z,99230.64
2022-12-08T04:40:40.882Z,99232.27
2022-12-08T04:45:43.888Z,99233.55
2022-12-08T04:50:46.994Z,99236.18
2022-12-08T04:55:50.517Z,99239.66
2022-12-08T05:00:53.613Z,99242.61
2022-12-08T05:05:56.628Z,99249.17
2022-12-08T05:11:07.917Z,99249.39
2022-12-08T05:16:13.773Z,99248.55
2022-12-08T05:21:16.914Z,99255.61
2022-12-08T05:26:20.328Z,99261.30
2022-12-08T05:31:23.501Z,99261.14
2022-12-08T05:36:26.647Z,99259.92
2022-12-08T05:41:29.760Z,99265.64
2022-12-08T05:46:32.970Z,99270.10
2022-12-08T05:51:35.976Z,99271.84
2022-12-08T05:56:38.982Z,99280.27
2022-12-08T06:01:42.789Z,99281.97
2022-12-08T06:06:46.019Z,99289.05
2022-12-08T06:11:49.330Z,99293.16
2022-12-08T06:16:52.661Z,99297.48
2022-12-08T06:21:55.693Z,99299.69
2022-12-08T06:26:58.661Z,99309.31
2022-12-08T06:32:01.836Z,99313.60
2022-12-08T06:37:04.874Z,99315.46
2022-12-08T06:42:26.487Z,99322.52
2022-12-08T06:47:29.523Z,99325.25
2022-12-08T06:52:32.733Z,99331.07
2022-12-08T06:57:35.844Z,99337.91
2022-12-08T07:02:39.048Z,99347.70
2022-12-08T07:07:42.408Z,99357.48
2022-12-08T07:12:45.890Z,99363.72
2022-12-08T07:17:49.755Z,99367.20
2022-12-08T07:22:54.867Z,99373.44
2022-12-08T07:27:57.881Z,99378.80
2022-12-08T07:33:03.544Z,99383.81
2022-12-08T07:38:10.917Z,99393.63
2022-12-08T07:43:13.863Z,99396.58
2022-12-08T07:48:17.454Z,99404.01
2022-12-08T07:53:20.421Z,99410.23
2022-12-08T07:58:23.598Z,99411.63
2022-12-08T08:03:26.803Z,99418.52
2022-12-08T08:08:30.277Z,99421.48
2022-12-08T08:13:33.438Z,99416.83
2022-12-08T08:18:37.903Z,99418.75
2022-12-08T08:23:41.086Z,99422.25
2022-12-08T08:28:45.937Z,99424.16
2022-12-08T08:33:49.864Z,99431.38
2022-12-08T08:38:52.972Z,99440.33
2022-12-08T08:43:55.979Z,99444.45
2022-12-08T08:48:59.275Z,99454.27
2022-12-08T08:54:02.300Z,99459.98
2022-12-08T08:59:05.511Z,99460.54
2022-12-08T09:04:10.421Z,99465.20
2022-12-08T09:09:13.573Z,99465.04
2022-12-08T09:14:16.682Z,99467.44
2022-12-08T09:19:20.101Z,99467.79
2022-12-08T09:24:23.403Z,99470.24
2022-12-08T09:29:31.093Z,99472.50
2022-12-08T09:34:37.507Z,99475.82
2022-12-08T09:39:40.617Z,99479.98
2022-12-08T09:44:52.428Z,99478.86
2022-12-08T09:49:59.312Z,99473.89
2022-12-08T09:55:10.121Z,99473.27
2022-12-08T10:00:14.610Z,99463.86
2022-12-08T10:05:17.617Z,99457.53
2022-12-08T10:10:32.242Z,99459.64
2022-12-08T10:15:48.329Z,99454.74
2022-12-08T10:20:52.895Z,99457.63
2022-12-08T10:26:01.943Z,99450.77
2022-12-08T10:31:05.307Z,99448.63
2022-12-08T10:36:11.442Z,99449.75
2022-12-08T10:41:18.191Z,99444.73
2022-12-08T10:46:26.073Z,99442.39
2022-12-08T10:51:33.319Z,99442.16
2022-12-08T10:56:36.297Z,99445.63
2022-12-08T11:01:41.531Z,99438.36
2022-12-08T11:06:45.647Z,99428.00
2022-12-08T11:11:54.807Z,99433.30
2022-12-08T11:17:17.069Z,99425.17
2022-12-08T11:22:25.709Z,99413.94
2022-12-08T11:27:29.021Z,99409.33
2022-12-08T11:32:32.130Z,99401.60
2022-12-08T11:37:41.280Z,99405.70
2022-12-08T11:43:09.779Z,99397.27
2022-12-08T11:48:19.575Z,99394.52
2022-12-08T11:53:53.788Z,99390.55
2022-12-08T11:59:02.328Z,99387.64
2022-12-08T12:04:29.907Z,99376.97
2022-12-08T12:10:00.765Z,99372.33
2022-12-08T12:15:31.231Z,99363.86
2022-12-08T12:20:42.617Z,99359.18
2022-12-08T12:25:58.232Z,99359.30
2022-12-08T12:31:06.624Z,99356.52
2022-12-08T12:36:11.241Z,99353.90
2022-12-08T12:41:19.737Z,99341.12
2022-12-08T12:46:25.670Z,99328.54
2022-12-08T12:51:42.364Z,99320.77
2022-12-08T12:56:49.948Z,99322.16
2022-12-08T13:01:55.927Z,99321.80
2022-12-08T13:06:59.852Z,99316.89
2022-12-08T13:12:12.587Z,99317.48
2022-12-08T13:17:31.232Z,99308.81
2022-12-08T13:22:54.036Z,99308.39
2022-12-08T13:27:57.238Z,99307.83
2022-12-08T13:33:18.431Z,99302.45
2022-12-08T13:38:28.240Z,99300.55
2022-12-08T13:43:51.325Z,99302.91
2022-12-08T14:00:02.593Z,99301.16
2022-12-08T14:05:18.161Z,99297.03
2022-12-08T14:10:30.720Z,99298.73
2022-12-08T14:15:38.417Z,99301.15
2022-12-08T14:21:18.883Z,99299.31
2022-12-08T14:26:06.117Z,99297.46
2022-12-08T14:31:14.116Z,99296.65
2022-12-08T14:36:20.231Z,99294.47
2022-12-08T14:41:32.161Z,99291.10
2022-12-08T14:46:35.221Z,99288.43
2022-12-08T14:51:40.244Z,99294.02
2022-12-08T14:56:54.894Z,99289.77
2022-12-08T15:02:16.052Z,99284.98
2022-12-08T15:07:23.786Z,99286.40
2022-12-08T15:12:31.921Z,99287.45
2022-12-08T15:17:36.443Z,99285.60
2022-12-08T15:22:39.553Z,99285.80
2022-12-08T15:27:50.203Z,99291.99
2022-12-08T15:32:54.472Z,99292.02
2022-12-08T15:37:57.544Z,99298.39
2022-12-08T15:43:00.589Z,99300.31
2022-12-08T15:48:04.102Z,99292.40
2022-12-08T15:53:10.507Z,99292.22
2022-12-08T16:09:37.106Z,99297.57
2022-12-08T16:20:07.373Z,99293.11
2022-12-08T16:25:21.768Z,99292.58
2022-12-08T16:30:25.693Z,99295.53
2022-12-08T16:35:29.128Z,99295.18
2022-12-08T16:40:32.548Z,99296.92
2022-12-08T16:45:41.513Z,99297.44
2022-12-08T16:50:47.976Z,99295.02
2022-12-08T16:55:51.394Z,99295.04
2022-12-08T17:00:54.688Z,99284.38
2022-12-08T17:05:58.330Z,99280.23
2022-12-08T17:11:11.981Z,99285.89
2022-12-08T17:16:19.377Z,99286.41
2022-12-08T17:21:22.501Z,99287.80
2022-12-08T17:26:25.547Z,99286.23
2022-12-08T17:31:30.803Z,99293.98
2022-12-08T17:36:34.387Z,99297.77
2022-12-08T17:41:37.800Z,99296.92
2022-12-08T17:46:46.383Z,99299.34
2022-12-08T17:51:56.305Z,99303.81
2022-12-08T17:56:59.618Z,99296.74
2022-12-08T18:02:04.500Z,99287.96
2022-12-08T18:07:07.600Z,99287.12
2022-12-08T18:12:10.702Z,99276.27
2022-12-08T18:17:14.857Z,99274.54
2022-12-08T18:22:17.826Z,99273.35
2022-12-08T18:27:20.832Z,99270.60
2022-12-08T18:32:23.944Z,99263.89
2022-12-08T18:37:27.149Z,99259.24
2022-12-08T18:42:30.266Z,99248.23
2022-12-08T18:47:40.440Z,99241.84
2022-12-08T18:52:45.406Z,99243.23
2022-12-08T18:57:49.013Z,99250.80
2022-12-08T19:02:52.165Z,99254.77
2022-12-08T19:07:55.414Z,99249.27
2022-12-08T19:12:58.549Z,99247.20
2022-12-08T19:18:02.057Z,99240.82
2022-12-08T19:23:05.178Z,99241.16
2022-12-08T19:28:08.299Z,99243.58
2022-12-08T19:33:11.697Z,99241.35
2022-12-08T19:38:15.540Z,99242.21
2022-12-08T19:43:40.107Z,99235.48
2022-12-08T19:48:43.768Z,99233.23
2022-12-08T19:53:47.982Z,99229.98
2022-12-08T19:58:51.207Z,99225.15
2022-12-08T20:03:54.312Z,99229.81
2022-12-08T20:08:57.523Z,99231.88
2022-12-08T20:14:00.527Z,99237.39
2022-12-08T20:19:04.430Z,99233.24
2022-12-08T20:24:07.882Z,99228.94
2022-12-08T20:29:11.905Z,99233.06
2022-12-08T20:34:16.423Z,99234.63
2022-12-08T20:39:19.566Z,99237.20
2022-12-08T20:44:22.683Z,99242.90
2022-12-08T20:49:29.834Z,99248.77
2022-12-08T20:54:38.173Z,99256.16
2022-12-08T20:59:41.225Z,99252.91
2022-12-08T21:04:44.737Z,99261.86
2022-12-08T21:09:48.042Z,99263.41
2022-12-08T21:14:51.502Z,99266.16
2022-12-08T21:19:54.863Z,99270.12
2022-12-08T21:24:57.952Z,99271.30
2022-12-08T21:30:01.121Z,99279.72
2022-12-08T21:35:05.365Z,99288.83
2022-12-08T21:40:09.422Z,99292.42
2022-12-08T21:45:15.586Z,99296.19
2022-12-08T21:50:19.014Z,99296.85
2022-12-08T21:55:23.930Z,99292.34
2022-12-08T22:00:27.051Z,99297.16
2022-12-08T22:05:30.248Z,99300.58
2022-12-08T22:10:33.629Z,99299.55
2022-12-08T22:15:36.740Z,99304.71
2022-12-08T22:20:43.917Z,99304.20
2022-12-08T22:26:01.736Z,99303.01
2022-12-08T22:31:12.917Z,99309.71
2022-12-08T22:36:19.815Z,99311.25
2022-12-08T22:41:23.849Z,99310.56
2022-12-08T22:46:27.984Z,99310.22
2022-12-08T22:51:31.024Z,99314.18
2022-12-08T22:56:34.096Z,99319.34
2022-12-08T23:01:37.078Z,99321.06
2022-12-08T23:06:40.101Z,99328.47
2022-12-08T23:11:44.207Z,99331.22
2022-12-08T23:16:47.691Z,99329.31
2022-12-08T23:21:50.887Z,99326.07
2022-12-08T23:26:54.048Z,99328.48
2022-12-08T23:31:57.394Z,99320.73
2022-12-08T23:37:00.586Z,99322.45
2022-12-08T23:42:04.112Z,99328.99
2022-12-08T23:47:07.370Z,99327.48
2022-12-08T23:52:13.765Z,99342.42
2022-12-08T23:57:17.425Z,99335.20
